Terminal Aerodrome Forecast
Issued by NWS Louisville, KY

Home | Current Version | Previous Version | Text Only | Print | Product List | Glossary On
Versions: 1 2 3 4 5 6 7 8 9 10 11 12 13 14 15 16 17 18 19 20
000
FTUS43 KLMK 291100
TAFLEX
TAF
KLEX 291131Z 2912/3012 19010KT P6SM -SHRA SCT040 BKN060
     FM291400 21015G25KT P6SM SCT035 BKN045
     FM291900 22014G21KT P6SM VCTS BKN035CB BKN250
      TEMPO 2919/2923 4SM -TSRA BKN025CB
     FM300000 21007KT P6SM SCT040 SCT100=

USA.gov is the U.S. government's official web portal to all federal, state and local government web resources and services.